Time;durP1;ratioP1;P1;durP2;ratioP2;P2;SDS_P1;SDS_P2;PMS_P1;PMS_P2;Temp;Humidity;BMP_temperature;BMP_pressure;BME280_temperature;BME280_humidity;BME280_pressure;Samples;Min_cycle;Max_cycle;Signal;HPM_P1;HPM_P2
2022/10/04 00:02:06;;;;;;;8.07;2.10;;;;;;;10.40;97.08;100735.31;5576278;31;34932;-69
2022/10/04 00:05:19;;;;;;;7.50;2.25;;;;;;;10.31;97.96;100734.41;5589518;31;34076;-68
2022/10/04 00:08:33;;;;;;;8.15;2.47;;;;;;;10.39;98.07;100725.69;5589535;31;34212;-69
2022/10/04 00:11:45;;;;;;;10.50;2.10;;;;;;;10.49;96.68;100734.34;5589339;31;35423;-67
2022/10/04 00:14:57;;;;;;;6.32;2.20;;;;;;;10.41;98.01;100736.94;5589425;31;34833;-67
2022/10/04 00:18:07;;;;;;;8.15;2.28;;;;;;;10.35;98.34;100740.25;5575434;31;32992;-67
2022/10/04 00:21:13;;;;;;;6.60;2.00;;;;;;;10.30;99.44;100729.28;5588970;31;35391;-67
2022/10/04 00:24:28;;;;;;;5.95;2.05;;;;;;;10.27;99.88;100732.22;5589317;31;34911;-67
2022/10/04 00:27:35;;;;;;;6.80;2.17;;;;;;;10.33;99.72;100726.31;5589691;31;34750;-66
2022/10/04 00:30:43;;;;;;;10.52;2.22;;;;;;;10.35;99.34;100737.59;5589419;31;34296;-67
2022/10/04 00:34:17;;;;;;;7.95;2.12;;;;;;;10.42;99.08;100728.84;5589199;31;34521;-67
2022/10/04 00:37:27;;;;;;;5.68;2.17;;;;;;;10.41;99.03;100721.87;5589219;31;34343;-66
2022/10/04 00:41:05;;;;;;;7.95;2.30;;;;;;;10.43;98.94;100729.69;5588910;31;34193;-67
2022/10/04 00:44:23;;;;;;;7.97;2.35;;;;;;;10.48;99.56;100730.03;5589058;31;34246;-68
2022/10/04 00:47:46;;;;;;;7.82;2.25;;;;;;;10.52;98.61;100720.75;5588941;31;34238;-65
2022/10/04 00:51:01;;;;;;;6.97;1.87;;;;;;;10.67;97.34;100716.53;5589007;31;34645;-68
2022/10/04 00:54:14;;;;;;;6.82;1.95;;;;;;;10.62;98.09;100718.81;5588958;31;34560;-67
2022/10/04 00:57:24;;;;;;;6.40;2.10;;;;;;;10.56;98.85;100718.63;5588905;31;34115;-68
2022/10/04 01:00:34;;;;;;;7.03;1.80;;;;;;;10.53;99.54;100703.03;5588762;31;34814;-68
2022/10/04 01:03:45;;;;;;;6.68;1.95;;;;;;;10.42;100.00;100701.47;5588643;31;34219;-67
2022/10/04 01:06:59;;;;;;;10.45;2.28;;;;;;;10.32;100.00;100706.91;5588663;31;35561;-69
2022/10/04 01:10:18;;;;;;;7.85;2.37;;;;;;;10.48;100.00;100706.16;5588834;31;34225;-68
2022/10/04 01:13:45;;;;;;;7.72;2.37;;;;;;;10.46;100.00;100692.22;5588518;31;34571;-68
2022/10/04 01:16:51;;;;;;;8.70;2.53;;;;;;;10.46;100.00;100685.09;5588784;31;34536;-67
2022/10/04 01:19:58;;;;;;;8.93;2.05;;;;;;;10.42;100.00;100686.41;5588483;31;34144;-67
2022/10/04 01:23:08;;;;;;;7.25;2.17;;;;;;;10.34;100.00;100681.06;5588472;31;34307;-69
2022/10/04 01:26:42;;;;;;;7.65;2.20;;;;;;;10.28;100.00;100684.34;5588357;31;34835;-67
2022/10/04 01:29:53;;;;;;;7.43;2.45;;;;;;;10.20;100.00;100673.72;5571615;31;34645;-68
2022/10/04 01:33:00;;;;;;;5.12;2.28;;;;;;;10.26;100.00;100670.41;5588544;31;34468;-67
2022/10/04 01:36:08;;;;;;;7.40;2.20;;;;;;;10.16;100.00;100664.41;5590837;31;34566;-68
2022/10/04 01:39:17;;;;;;;7.80;2.30;;;;;;;10.22;100.00;100673.53;5590790;31;34224;-68
2022/10/04 01:42:43;;;;;;;7.18;2.22;;;;;;;10.23;100.00;100677.84;5590610;31;34679;-68
2022/10/04 01:45:57;;;;;;;5.62;2.50;;;;;;;10.21;100.00;100671.91;5591012;31;34287;-68
2022/10/04 01:49:13;;;;;;;9.35;2.37;;;;;;;10.18;100.00;100680.97;5590711;31;34207;-68
2022/10/04 01:52:26;;;;;;;5.62;2.50;;;;;;;10.16;100.00;100672.38;5576919;31;32735;-68
2022/10/04 01:55:36;;;;;;;9.77;2.40;;;;;;;10.19;100.00;100671.22;5577145;31;34847;-67
2022/10/04 01:58:48;;;;;;;6.18;2.10;;;;;;;10.21;100.00;100667.44;5590631;31;34132;-68
2022/10/04 02:02:19;;;;;;;7.03;2.12;;;;;;;10.27;100.00;100661.47;5590654;31;34069;-68
2022/10/04 02:05:34;;;;;;;7.57;2.40;;;;;;;10.25;100.00;100662.62;5590605;31;34196;-67
2022/10/04 02:08:49;;;;;;;4.87;2.22;;;;;;;10.31;100.00;100662.81;5590410;31;34743;-68
2022/10/04 02:11:58;;;;;;;6.57;2.47;;;;;;;10.30;100.00;100668.28;5576705;31;33727;-69
2022/10/04 02:15:08;;;;;;;9.98;2.25;;;;;;;10.22;100.00;100674.37;5576942;31;34324;-69
2022/10/04 02:18:20;;;;;;;6.95;2.25;;;;;;;10.13;100.00;100683.25;5590429;31;34986;-68
2022/10/04 02:21:27;;;;;;;6.70;2.42;;;;;;;10.12;100.00;100681.56;5590766;31;35186;-69
2022/10/04 02:24:42;;;;;;;7.82;2.15;;;;;;;9.97;100.00;100686.62;5590439;31;34558;-69
2022/10/04 02:27:54;;;;;;;6.03;2.53;;;;;;;9.91;100.00;100687.28;5590372;31;34236;-69
2022/10/04 02:34:33;;;;;;;7.32;2.50;;;;;;;9.74;100.00;100687.28;5590328;31;34197;-68
2022/10/04 02:37:40;;;;;;;7.47;2.58;;;;;;;9.63;100.00;100690.22;5590298;31;34249;-69
2022/10/04 02:41:07;;;;;;;7.37;2.85;;;;;;;9.49;100.00;100687.09;5590018;31;34614;-69
2022/10/04 02:44:32;;;;;;;7.62;2.40;;;;;;;9.63;100.00;100691.06;5590091;31;34219;-69
2022/10/04 02:47:50;;;;;;;10.65;2.40;;;;;;;9.61;100.00;100687.72;5590559;31;34215;-69
2022/10/04 02:51:08;;;;;;;7.43;2.60;;;;;;;9.44;100.00;100678.78;5590234;31;34593;-69
2022/10/04 02:54:36;;;;;;;7.47;2.60;;;;;;;9.37;100.00;100682.22;5590216;31;34859;-69
2022/10/04 02:57:48;;;;;;;5.60;2.42;;;;;;;9.35;100.00;100685.00;5576932;31;34313;-69
2022/10/04 03:00:59;;;;;;;9.70;2.60;;;;;;;9.47;100.00;100678.50;5590130;31;34354;-68
2022/10/04 03:04:12;;;;;;;8.35;2.70;;;;;;;9.55;100.00;100677.72;5590050;31;34884;-68
2022/10/04 03:07:20;;;;;;;10.38;2.78;;;;;;;9.67;100.00;100679.16;5590003;31;34956;-69
2022/10/04 03:10:29;;;;;;;6.90;2.25;;;;;;;9.73;100.00;100680.34;5590277;31;35382;-69
2022/10/04 03:13:36;;;;;;;6.60;2.58;;;;;;;9.75;100.00;100683.66;5589924;31;34297;-68
2022/10/04 03:16:46;;;;;;;7.32;2.85;;;;;;;9.77;100.00;100687.84;5589960;31;34611;-68
2022/10/04 03:19:53;;;;;;;5.80;2.80;;;;;;;9.81;100.00;100680.41;5589900;31;34411;-69
2022/10/04 03:23:02;;;;;;;6.62;2.40;;;;;;;9.73;100.00;100673.22;5589779;31;34621;-68
2022/10/04 03:26:34;;;;;;;6.62;2.45;;;;;;;9.77;100.00;100681.72;5589924;31;34456;-68
2022/10/04 03:29:46;;;;;;;10.07;2.58;;;;;;;9.81;100.00;100675.09;5589956;31;34181;-69
2022/10/04 03:32:56;;;;;;;7.20;2.55;;;;;;;9.77;100.00;100679.88;5589852;31;34856;-68
2022/10/04 03:36:03;;;;;;;7.70;2.43;;;;;;;9.78;100.00;100676.22;5589788;31;34743;-68
2022/10/04 03:39:11;;;;;;;7.82;2.40;;;;;;;9.80;100.00;100670.78;5589744;31;34417;-69
2022/10/04 03:42:18;;;;;;;5.30;2.53;;;;;;;10.02;100.00;100678.22;5589547;31;34147;-67
2022/10/04 03:45:28;;;;;;;7.40;2.63;;;;;;;10.10;100.00;100672.97;5589686;31;34493;-67
2022/10/04 03:48:52;;;;;;;6.40;2.10;;;;;;;10.15;100.00;100680.44;5589620;31;34496;-66
2022/10/04 03:52:00;;;;;;;5.70;2.12;;;;;;;10.19;100.00;100672.06;5589546;31;34191;-67
2022/10/04 03:55:12;;;;;;;8.40;2.50;;;;;;;10.19;100.00;100676.50;5589535;31;34348;-67
2022/10/04 03:58:22;;;;;;;5.55;2.00;;;;;;;10.23;100.00;100675.22;5589497;31;34397;-66
2022/10/04 04:01:39;;;;;;;6.43;2.33;;;;;;;10.28;100.00;100670.25;5589524;31;34225;-67
2022/10/04 04:04:55;;;;;;;7.15;2.40;;;;;;;10.26;100.00;100675.72;5575597;31;33911;-67
2022/10/04 04:08:32;;;;;;;6.82;2.33;;;;;;;10.26;100.00;100665.09;5589461;31;34972;-67
2022/10/04 04:11:42;;;;;;;7.90;2.47;;;;;;;10.32;100.00;100667.13;5575822;31;34207;-68
2022/10/04 04:14:52;;;;;;;6.87;2.28;;;;;;;10.24;100.00;100675.06;5589236;31;34867;-68
2022/10/04 04:18:04;;;;;;;9.98;2.50;;;;;;;10.17;100.00;100674.00;5589306;31;34225;-66
2022/10/04 04:21:17;;;;;;;11.32;2.37;;;;;;;10.13;100.00;100687.72;5589283;31;34377;-67
2022/10/04 04:24:28;;;;;;;7.47;2.15;;;;;;;10.10;100.00;100686.22;5589285;31;34146;-68
2022/10/04 04:27:39;;;;;;;5.62;2.20;;;;;;;10.07;100.00;100691.00;5575351;31;34335;-69
2022/10/04 04:30:52;;;;;;;5.35;2.35;;;;;;;10.09;100.00;100699.62;5575716;31;34887;-68
2022/10/04 04:34:03;;;;;;;5.25;2.25;;;;;;;10.09;100.00;100704.91;5589316;31;34360;-66
2022/10/04 04:37:14;;;;;;;5.87;2.10;;;;;;;10.06;100.00;100707.91;5575803;31;34298;-67
2022/10/04 04:40:22;;;;;;;8.88;2.28;;;;;;;10.02;100.00;100696.78;5574991;31;32735;-68
2022/10/04 04:43:30;;;;;;;7.53;2.03;;;;;;;10.08;100.00;100695.31;5575697;31;34909;-68
2022/10/04 04:46:37;;;;;;;6.00;2.10;;;;;;;10.16;100.00;100698.88;5575130;31;34204;-68
2022/10/04 04:49:42;;;;;;;6.60;2.53;;;;;;;10.23;100.00;100701.72;5588970;31;34043;-68
2022/10/04 04:53:06;;;;;;;8.13;2.33;;;;;;;10.44;100.00;100696.88;5574849;31;32813;-67
2022/10/04 04:56:11;;;;;;;7.32;2.10;;;;;;;10.60;100.00;100696.91;5588867;31;34868;-69
2022/10/04 04:59:25;;;;;;;7.70;2.12;;;;;;;10.75;100.00;100697.13;5588810;31;34924;-68
2022/10/04 05:02:35;;;;;;;8.63;2.08;;;;;;;10.85;100.00;100706.62;5588501;31;35213;-68
2022/10/04 05:05:46;;;;;;;7.55;2.40;;;;;;;10.93;100.00;100707.66;5588605;31;34280;-66
2022/10/04 05:08:51;;;;;;;5.75;2.03;;;;;;;10.96;100.00;100713.47;5589489;31;34327;-68
2022/10/04 05:12:20;;;;;;;7.37;2.20;;;;;;;10.98;100.00;100708.00;5577764;31;33700;-69
2022/10/04 05:15:36;;;;;;;6.97;2.17;;;;;;;11.06;100.00;100710.66;5591117;31;34297;-69
2022/10/04 05:18:42;;;;;;;5.47;2.08;;;;;;;11.06;100.00;100723.94;5577215;31;34998;-70
2022/10/04 05:21:49;;;;;;;6.68;2.20;;;;;;;11.13;100.00;100738.25;5590777;31;34925;-70
2022/10/04 05:25:03;;;;;;;7.72;2.25;;;;;;;11.17;100.00;100734.25;5576548;31;33446;-69
2022/10/04 05:28:11;;;;;;;7.12;1.87;;;;;;;11.16;100.00;100727.28;5591133;31;34975;-68
2022/10/04 05:31:38;;;;;;;10.60;2.50;;;;;;;11.24;100.00;100732.59;5576765;31;34797;-68
2022/10/04 05:34:49;;;;;;;5.47;1.70;;;;;;;11.28;100.00;100748.03;5590525;31;34986;-69
2022/10/04 05:38:10;;;;;;;4.45;1.60;;;;;;;11.36;100.00;100747.25;5590274;31;34941;-69
2022/10/04 05:41:33;;;;;;;7.75;2.30;;;;;;;11.33;100.00;100734.28;5590611;31;35015;-69
2022/10/04 05:44:50;;;;;;;4.82;1.87;;;;;;;11.42;100.00;100749.25;5590580;31;35045;-69
2022/10/04 05:47:57;;;;;;;7.40;1.90;;;;;;;11.41;100.00;100763.53;5590572;31;34171;-69
2022/10/04 05:51:02;;;;;;;6.57;1.77;;;;;;;11.40;100.00;100753.03;5590686;31;34321;-67
2022/10/04 05:54:09;;;;;;;7.97;2.20;;;;;;;11.32;100.00;100765.34;5589808;31;34373;-67
2022/10/04 05:57:19;;;;;;;7.25;2.20;;;;;;;11.26;100.00;100767.81;5590076;31;34102;-68
2022/10/04 06:00:57;;;;;;;8.00;2.22;;;;;;;11.31;100.00;100768.16;5590151;31;34266;-70
2022/10/04 06:04:20;;;;;;;8.48;2.40;;;;;;;11.40;100.00;100771.66;5590129;31;34122;-70
2022/10/04 06:08:00;;;;;;;7.70;2.30;;;;;;;11.59;100.00;100776.66;5590194;31;34279;-71
2022/10/04 06:11:39;;;;;;;7.87;2.25;;;;;;;11.58;100.00;100781.12;5548742;31;34234;-70
2022/10/04 06:14:47;;;;;;;8.63;2.28;;;;;;;11.57;100.00;100784.78;5588959;31;34097;-70
2022/10/04 06:18:12;;;;;;;8.85;2.70;;;;;;;11.77;100.00;100791.47;5590672;31;34549;-70
2022/10/04 06:21:26;;;;;;;7.12;2.10;;;;;;;11.96;100.00;100782.34;5589889;31;34983;-70
2022/10/04 06:24:36;;;;;;;9.85;2.15;;;;;;;12.16;100.00;100791.62;5590051;31;34174;-69
2022/10/04 06:27:57;;;;;;;7.55;2.17;;;;;;;12.18;100.00;100799.47;5590070;31;34390;-70
2022/10/04 06:31:26;;;;;;;8.10;2.20;;;;;;;12.26;100.00;100795.94;5589848;31;34239;-69
2022/10/04 06:34:48;;;;;;;10.27;2.30;;;;;;;12.19;100.00;100796.63;5589650;31;34170;-70
2022/10/04 06:38:11;;;;;;;6.20;1.75;;;;;;;12.34;100.00;100809.25;5589104;31;34879;-69
2022/10/04 06:41:28;;;;;;;7.22;2.00;;;;;;;12.35;100.00;100798.41;5569024;32;33445;-70
2022/10/04 06:45:22;;;;;;;9.70;2.40;;;;;;;12.42;100.00;100772.81;5570570;32;34116;-69
2022/10/04 06:48:35;;;;;;;8.02;2.28;;;;;;;12.59;99.88;100779.72;5544736;31;34904;-67
2022/10/04 06:51:51;;;;;;;6.78;2.10;;;;;;;12.73;98.98;100786.19;5569612;32;34939;-68
2022/10/04 06:55:19;;;;;;;6.93;2.05;;;;;;;12.68;98.42;100801.03;5569428;32;32846;-67
2022/10/04 06:58:52;;;;;;;7.68;2.05;;;;;;;12.51;99.88;100803.72;5569567;32;32996;-68
2022/10/04 07:01:59;;;;;;;6.07;1.75;;;;;;;12.64;100.00;100817.31;5569160;32;32817;-69
2022/10/04 07:05:29;;;;;;;6.50;1.70;;;;;;;12.62;100.00;100815.84;5569871;32;34357;-70
2022/10/04 07:08:42;;;;;;;4.18;1.65;;;;;;;13.00;98.31;100825.69;5562667;32;34321;-68
2022/10/04 07:11:56;;;;;;;7.25;1.67;;;;;;;12.98;98.39;100829.53;5570048;32;34743;-68
2022/10/04 07:15:07;;;;;;;5.93;1.70;;;;;;;13.22;97.76;100834.78;5569408;32;33501;-69
2022/10/04 07:18:17;;;;;;;5.37;1.80;;;;;;;13.00;98.86;100839.03;5570129;32;34356;-69
2022/10/04 07:21:25;;;;;;;5.25;1.70;;;;;;;13.21;96.56;100843.81;5556099;32;33398;-69
2022/10/04 07:24:46;;;;;;;6.12;1.85;;;;;;;13.31;95.72;100836.41;5570014;32;35416;-67
2022/10/04 07:31:41;;;;;;;6.78;2.00;;;;;;;12.97;99.52;100838.53;5569191;32;34818;-69
2022/10/04 07:35:00;;;;;;;4.22;1.77;;;;;;;12.76;100.00;100833.78;5570000;32;34207;-69
2022/10/04 07:38:16;;;;;;;7.47;1.85;;;;;;;13.02;98.79;100838.84;5569965;32;34325;-70
2022/10/04 07:41:35;;;;;;;4.78;2.00;;;;;;;13.17;99.22;100849.66;5569088;32;33580;-70
2022/10/04 07:44:43;;;;;;;4.47;1.77;;;;;;;14.13;91.21;100852.72;5569003;32;32851;-69
2022/10/04 07:47:47;;;;;;;6.93;1.52;;;;;;;15.55;81.98;100854.19;5569888;32;34838;-70
2022/10/04 07:50:56;;;;;;;7.55;1.70;;;;;;;16.66;74.21;100861.63;5569601;32;34177;-70
2022/10/04 07:54:03;;;;;;;6.65;1.70;;;;;;;17.56;69.31;100852.59;5569185;32;34212;-68
2022/10/04 07:57:20;;;;;;;7.55;1.80;;;;;;;17.37;69.27;100852.34;5568969;32;33648;-69
2022/10/04 08:00:35;;;;;;;7.55;1.65;;;;;;;17.81;66.63;100859.91;5569009;32;33532;-68
2022/10/04 08:03:38;;;;;;;7.07;1.50;;;;;;;16.70;70.96;100860.19;5556401;32;32629;-68
2022/10/04 08:06:55;;;;;;;4.60;1.42;;;;;;;16.00;73.49;100853.03;5568642;32;33159;-69
2022/10/04 08:10:13;;;;;;;9.45;2.37;;;;;;;14.88;80.21;100856.19;5569710;32;35354;-69
2022/10/04 08:13:27;;;;;;;7.35;1.60;;;;;;;14.58;82.34;100855.31;5569577;32;35098;-69
2022/10/04 08:16:42;;;;;;;3.97;1.50;;;;;;;13.85;85.49;100863.91;5569570;32;34084;-68
2022/10/04 08:20:01;;;;;;;7.35;1.58;;;;;;;13.62;86.79;100872.88;5570039;32;34307;-68
2022/10/04 08:23:38;;;;;;;7.60;1.80;;;;;;;14.09;84.63;100872.72;5569571;32;34928;-69
2022/10/04 08:26:49;;;;;;;7.22;1.67;;;;;;;13.69;87.45;100880.03;5568766;32;32770;-68
2022/10/04 08:30:05;;;;;;;8.43;1.65;;;;;;;14.05;85.40;100882.94;5568598;32;34221;-69
2022/10/04 08:33:41;;;;;;;7.30;1.60;;;;;;;14.27;84.45;100887.47;5568226;32;33184;-68
2022/10/04 08:36:53;;;;;;;4.90;1.50;;;;;;;14.35;84.57;100884.72;5569239;32;34229;-67
2022/10/04 08:40:22;;;;;;;7.10;1.60;;;;;;;14.54;82.94;100879.91;5570117;31;34304;-69
2022/10/04 08:43:32;;;;;;;7.12;1.67;;;;;;;14.30;85.12;100888.94;5588104;31;34422;-68
2022/10/04 08:46:54;;;;;;;;;;;;;;;14.20;86.18;100881.16;5589128;31;34347;-68
2022/10/04 08:50:50;;;;;;;10.40;2.05;;;;;;;14.33;85.49;100884.03;5575175;31;35705;-69
2022/10/04 08:54:12;;;;;;;5.95;2.08;;;;;;;14.66;84.40;100894.50;5555143;31;34583;-69
2022/10/04 08:57:44;;;;;;;6.22;1.70;;;;;;;14.38;86.28;100906.75;5574843;31;33039;-69
2022/10/04 09:00:55;;;;;;;6.03;1.40;;;;;;;14.72;82.52;100899.91;5588553;31;33937;-67
2022/10/04 09:04:39;;;;;;;7.70;1.70;;;;;;;14.81;80.31;100890.00;5588411;31;34887;-68
2022/10/04 09:07:56;;;;;;;3.70;1.37;;;;;;;14.49;78.92;100884.94;5554643;31;34280;-68
2022/10/04 09:11:09;;;;;;;3.90;1.20;;;;;;;14.70;78.31;100901.13;5588142;31;34625;-69
2022/10/04 09:14:35;;;;;;;9.93;1.70;;;;;;;14.39;78.77;100881.69;5588177;31;35215;-69
2022/10/04 09:17:52;;;;;;;10.15;2.00;;;;;;;14.58;78.91;100875.84;5588089;31;34917;-68
2022/10/04 09:21:04;;;;;;;4.60;1.35;;;;;;;15.34;75.06;100891.56;5561533;31;33743;-68
2022/10/04 09:24:30;;;;;;;6.72;1.45;;;;;;;15.49;73.73;100899.56;5588157;31;34215;-68
2022/10/04 09:28:16;;;;;;;13.32;1.60;;;;;;;15.83;71.94;100897.09;5573553;31;34262;-69
2022/10/04 09:31:35;;;;;;;8.48;1.48;;;;;;;15.86;72.06;100882.53;5587830;31;34226;-69
2022/10/04 09:34:49;;;;;;;6.57;1.60;;;;;;;14.92;77.03;100889.53;5573479;31;33794;-66
2022/10/04 09:38:27;;;;;;;6.95;1.27;;;;;;;14.81;76.46;100889.16;5573521;31;33523;-67
2022/10/04 09:42:02;;;;;;;7.28;1.62;;;;;;;14.71;76.84;100903.62;5532223;32;34628;-67
2022/10/04 09:45:36;;;;;;;5.07;1.30;;;;;;;14.52;77.60;100896.12;5535439;32;32854;-69
2022/10/04 09:48:45;;;;;;;5.62;1.85;;;;;;;14.56;79.07;100891.25;5548563;32;34907;-68
2022/10/04 09:52:17;;;;;;;3.95;1.30;;;;;;;14.88;77.94;100884.72;5548591;32;34273;-68
2022/10/04 09:55:40;;;;;;;4.35;1.35;;;;;;;14.65;76.96;100879.47;5548966;32;33014;-67
2022/10/04 09:59:17;;;;;;;4.70;1.50;;;;;;;14.66;75.85;100879.28;5550777;32;33859;-69
2022/10/04 10:02:55;;;;;;;11.30;2.25;;;;;;;14.92;75.21;100894.87;5551253;32;34331;-65
2022/10/04 10:06:27;;;;;;;5.20;1.40;;;;;;;14.95;73.06;100899.88;5550474;32;33435;-67
2022/10/04 10:13:52;;;;;;;5.87;1.58;;;;;;;15.37;73.04;100920.59;5550067;32;33678;-68
2022/10/04 10:17:35;;;;;;;3.50;1.20;;;;;;;15.20;72.73;100905.78;5551359;32;34179;-68
2022/10/04 10:21:07;;;;;;;5.78;1.50;;;;;;;15.75;71.78;100915.94;5551130;32;34285;-68
2022/10/04 10:24:31;;;;;;;7.93;1.35;;;;;;;15.93;71.20;100921.69;5550186;32;34883;-68
2022/10/04 10:28:03;;;;;;;5.03;1.40;;;;;;;15.64;70.49;100914.56;5550941;32;34789;-67
2022/10/04 10:31:10;;;;;;;5.82;1.58;;;;;;;15.66;69.26;100919.75;5550678;32;34942;-68
2022/10/04 10:34:45;;;;;;;3.03;1.10;;;;;;;15.51;69.95;100917.09;5550571;32;34751;-67
2022/10/04 10:37:58;;;;;;;3.28;1.30;;;;;;;15.44;71.87;100924.16;5550447;32;33006;-68
2022/10/04 10:41:07;;;;;;;6.57;1.40;;;;;;;15.80;70.25;100918.06;5559315;32;32926;-68
2022/10/04 10:44:28;;;;;;;5.47;1.40;;;;;;;15.98;68.90;100916.59;5570943;32;33440;-68
2022/10/04 10:47:51;;;;;;;4.47;1.45;;;;;;;16.12;69.59;100925.59;5569973;32;33091;-69
2022/10/04 10:51:28;;;;;;;3.20;0.88;;;;;;;16.34;66.42;100923.75;5570742;32;34934;-69
2022/10/04 10:54:47;;;;;;;4.22;1.35;;;;;;;16.44;66.10;100924.28;5570432;32;34860;-68
2022/10/04 10:58:21;;;;;;;3.17;1.10;;;;;;;15.95;67.03;100916.16;5556561;32;32949;-67
2022/10/04 11:01:30;;;;;;;6.55;1.52;;;;;;;17.03;62.76;100915.88;5570355;32;34171;-67
2022/10/04 11:05:10;;;;;;;4.05;1.17;;;;;;;21.24;50.66;100922.13;5569858;32;34446;-67
2022/10/04 11:08:55;;;;;;;3.65;1.17;;;;;;;22.67;45.59;100922.22;5569885;32;34925;-68
2022/10/04 11:12:22;;;;;;;3.05;1.02;;;;;;;24.60;40.59;100924.28;5569955;32;34857;-69
2022/10/04 11:16:06;;;;;;;4.37;1.05;;;;;;;24.78;38.49;100925.94;5568856;32;34368;-69
2022/10/04 11:19:11;;;;;;;3.85;1.00;;;;;;;23.46;41.85;100923.53;5569460;32;32710;-68
2022/10/04 11:22:44;;;;;;;6.35;1.10;;;;;;;21.53;46.18;100914.31;5569494;32;34473;-70
2022/10/04 11:25:47;;;;;;;4.12;0.90;;;;;;;19.99;50.88;100921.44;5570102;32;34270;-67
2022/10/04 11:29:13;;;;;;;3.62;0.82;;;;;;;18.67;55.61;100922.66;5570457;32;34195;-69
2022/10/04 11:32:51;;;;;;;2.58;0.77;;;;;;;18.16;56.25;100924.22;5569946;32;34849;-68
2022/10/04 11:36:11;;;;;;;6.47;1.25;;;;;;;17.02;60.32;100923.09;5569938;32;34326;-68
2022/10/04 11:39:23;;;;;;;5.35;1.10;;;;;;;17.05;61.20;100921.87;5569568;32;34929;-68
2022/10/04 11:42:52;;;;;;;2.75;1.00;;;;;;;17.58;58.87;100921.13;5568809;32;32551;-68
2022/10/04 11:46:12;;;;;;;1.98;1.02;;;;;;;17.16;59.79;100924.00;5569937;32;34909;-67
2022/10/04 11:49:22;;;;;;;4.37;0.90;;;;;;;16.81;61.03;100926.66;5568892;32;32985;-67
2022/10/04 11:52:41;;;;;;;3.10;1.20;;;;;;;16.00;64.29;100916.44;5569766;32;35416;-67
2022/10/04 11:56:12;;;;;;;4.32;1.15;;;;;;;16.09;66.52;100916.13;5569066;32;32732;-65
2022/10/04 11:59:52;;;;;;;8.75;1.50;;;;;;;17.51;61.35;100914.91;5569738;32;34151;-70
2022/10/04 12:03:21;;;;;;;2.53;0.90;;;;;;;20.81;50.24;100927.50;5569789;32;34854;-69
2022/10/04 12:06:33;;;;;;;6.28;1.58;;;;;;;20.18;50.22;100915.94;5569560;32;35086;-68
2022/10/04 12:10:31;;;;;;;7.45;1.37;;;;;;;19.22;54.17;100919.69;5568772;32;34178;-67
2022/10/04 12:13:36;;;;;;;7.80;1.58;;;;;;;19.32;54.57;100915.47;5490198;32;35371;-70
2022/10/04 12:16:49;;;;;;;5.12;1.35;;;;;;;21.77;47.82;100929.56;5476989;32;33732;-69
2022/10/04 12:20:17;;;;;;;3.28;1.10;;;;;;;23.71;42.99;100934.06;5478045;32;33166;-68
2022/10/04 12:23:41;;;;;;;5.82;1.40;;;;;;;22.47;45.52;100922.53;5477736;32;32665;-69
2022/10/04 12:27:18;;;;;;;1.30;0.93;;;;;;;23.08;44.99;100921.31;5490635;32;34134;-68
2022/10/04 12:30:32;;;;;;;1.92;0.90;;;;;;;21.09;49.45;100927.00;5490443;32;34087;-67
2022/10/04 12:33:47;;;;;;;3.35;1.15;;;;;;;19.66;53.73;100929.66;5477660;32;34393;-68
2022/10/04 12:37:15;;;;;;;5.22;1.20;;;;;;;21.44;48.46;100934.56;5490468;32;34248;-68
2022/10/04 12:40:28;;;;;;;5.45;1.30;;;;;;;19.65;53.31;100925.34;5470697;32;203539;-69
2022/10/04 12:43:55;;;;;;;6.90;1.27;;;;;;;19.06;56.55;100923.62;5477125;32;33251;-70
2022/10/04 12:47:24;;;;;;;4.12;1.00;;;;;;;19.07;55.19;100918.03;5513134;32;34276;-68
2022/10/04 12:50:34;;;;;;;6.27;0.90;;;;;;;19.40;54.22;100922.50;5549542;32;35584;-68
2022/10/04 12:54:15;;;;;;;2.92;1.12;;;;;;;18.88;55.49;100926.16;5548919;32;32883;-68
2022/10/04 12:58:02;;;;;;;5.53;0.98;;;;;;;18.26;57.78;100935.37;5549493;32;34873;-68
2022/10/04 13:01:40;;;;;;;3.35;0.95;;;;;;;17.87;57.83;100919.19;5509168;32;34348;-67
2022/10/04 13:04:50;;;;;;;2.37;0.93;;;;;;;17.87;57.82;100929.91;5490890;32;34146;-67
2022/10/04 13:08:13;;;;;;;8.00;1.58;;;;;;;17.63;58.82;100918.69;5483825;32;33767;-68
2022/10/04 13:11:35;;;;;;;5.80;0.90;;;;;;;16.92;62.13;100919.94;5496181;32;34131;-68
2022/10/04 13:14:48;;;;;;;3.60;0.80;;;;;;;16.61;60.96;100924.84;5508581;32;34106;-66
2022/10/04 13:17:58;;;;;;;2.42;0.90;;;;;;;16.56;59.11;100921.87;5509045;32;34245;-68
2022/10/04 13:21:06;;;;;;;2.92;0.70;;;;;;;16.93;59.64;100916.25;5508849;32;34180;-68
2022/10/04 13:24:20;;;;;;;4.50;1.10;;;;;;;16.59;60.19;100913.50;5508768;32;34196;-67
2022/10/04 13:27:37;;;;;;;2.25;0.82;;;;;;;16.59;59.90;100908.16;5508328;32;34294;-67
2022/10/04 13:30:53;;;;;;;1.52;0.60;;;;;;;16.65;60.08;100910.06;5518497;32;34205;-67
2022/10/04 13:34:07;;;;;;;1.37;0.70;;;;;;;16.80;59.45;100911.59;5551096;32;34138;-67
2022/10/04 13:37:38;;;;;;;4.75;1.00;;;;;;;16.68;58.71;100920.38;5550100;32;34278;-67
2022/10/04 13:40:45;;;;;;;;;;;;;;;16.80;59.17;100921.47;5562472;31;33530;-67
2022/10/04 13:44:13;;;;;;;3.95;0.80;;;;;;;17.12;57.80;100915.53;5590470;31;34699;-68
2022/10/04 13:47:50;;;;;;;1.48;0.75;;;;;;;17.73;54.51;100927.19;5590163;31;34444;-66
2022/10/04 13:51:00;;;;;;;1.87;0.82;;;;;;;17.69;53.72;100931.31;5575908;31;33013;-66
2022/10/04 13:57:56;;;;;;;4.30;0.73;;;;;;;17.98;52.64;100932.84;5575709;31;32955;-67
2022/10/04 14:01:21;;;;;;;3.30;0.90;;;;;;;17.41;55.96;100932.41;5575946;31;33129;-67
2022/10/04 14:05:08;;;;;;;4.57;0.80;;;;;;;17.19;55.26;100928.97;5589908;31;34626;-68
2022/10/04 14:08:30;;;;;;;2.78;0.95;;;;;;;16.74;57.29;100933.84;5589598;31;34388;-66
2022/10/04 14:11:57;;;;;;;3.60;0.90;;;;;;;16.26;59.27;100945.31;5589822;31;34180;-68
2022/10/04 14:15:28;;;;;;;5.80;1.00;;;;;;;15.97;61.39;100947.09;5575901;31;33661;-68
2022/10/04 14:18:58;;;;;;;4.82;0.90;;;;;;;16.15;61.34;100946.66;5575991;31;32850;-68
2022/10/04 14:22:32;;;;;;;5.90;1.60;;;;;;;15.95;62.37;100953.62;5562688;31;34193;-67
2022/10/04 14:25:52;;;;;;;5.75;1.25;;;;;;;15.89;63.71;100949.84;5574752;31;33597;-68
2022/10/04 14:29:27;;;;;;;3.05;1.00;;;;;;;15.83;63.64;100949.78;5589336;31;35489;-67
2022/10/04 14:33:24;;;;;;;5.47;1.10;;;;;;;15.59;64.87;100948.25;5589595;31;34284;-67
2022/10/04 14:36:40;;;;;;;3.50;1.35;;;;;;;15.47;67.07;100947.03;5490965;32;34348;-68
2022/10/04 14:39:50;;;;;;;7.65;2.10;;;;;;;15.51;66.49;100946.50;5477689;32;33291;-67
2022/10/04 14:43:51;;;;;;;3.22;1.23;;;;;;;15.39;67.60;100963.19;5478299;32;34808;-67
2022/10/04 14:46:56;;;;;;;3.00;1.08;;;;;;;15.45;67.62;100960.59;5477579;32;33445;-68
2022/10/04 14:50:25;;;;;;;3.33;1.20;;;;;;;15.35;67.99;100960.03;5490475;32;34886;-68
2022/10/04 14:53:52;;;;;;;4.25;1.20;;;;;;;15.34;67.20;100958.41;5490739;32;34328;-68
2022/10/04 14:57:19;;;;;;;2.45;1.20;;;;;;;15.48;66.91;100972.78;5477911;32;33249;-69
2022/10/04 15:00:54;;;;;;;3.05;0.93;;;;;;;15.37;64.57;100966.03;5477331;32;32737;-68
2022/10/04 15:04:24;;;;;;;4.20;0.90;;;;;;;15.34;64.97;100973.59;5478143;32;33401;-68
2022/10/04 15:07:31;;;;;;;2.17;0.98;;;;;;;15.26;65.55;100971.84;5465818;32;34167;-68
2022/10/04 15:10:45;;;;;;;4.75;1.00;;;;;;;15.22;65.84;100982.06;5561038;31;34178;-68
2022/10/04 15:14:00;;;;;;;2.28;0.95;;;;;;;15.16;64.97;100988.12;5575816;31;34844;-68
2022/10/04 15:17:23;;;;;;;3.15;0.82;;;;;;;15.11;65.20;100992.38;5575206;31;32826;-68
2022/10/04 15:20:46;;;;;;;3.35;1.00;;;;;;;15.07;65.53;100983.88;5576042;31;34161;-67
2022/10/04 15:23:56;;;;;;;7.05;1.10;;;;;;;15.03;65.94;100985.28;5575339;31;32704;-68
2022/10/04 15:27:19;;;;;;;1.67;0.85;;;;;;;14.89;66.13;100985.25;5562614;31;32992;-68
2022/10/04 15:30:36;;;;;;;5.40;0.90;;;;;;;14.86;66.74;100989.13;5575411;31;33373;-67
2022/10/04 15:33:52;;;;;;;2.58;0.95;;;;;;;14.83;66.58;100981.44;5589177;31;34218;-67
2022/10/04 15:37:34;;;;;;;4.25;1.00;;;;;;;14.73;67.60;100996.91;5575203;31;33878;-67